ADDS METAR Data INFO
IDs: Format: Raw Decoded Include TAF

Data at: 1023 UTC 12 Dec 2017

KSTL 120951Z 32017G24KT 10SM BKN035 02/M05 A3012 RMK AO2 PK WND 32028/0921 SLP205 T00221050
KSTL 120851Z 33015G24KT 10SM OVC037 03/M04 A3010 RMK AO2 PK WND 31029/0757 SLP197 T00331039 53020
KSTL 120751Z 32017G29KT 10SM FEW024 OVC031 04/M02 A3008 RMK AO2 PK WND 32031/0741 SLP187 T00391017
KSTL 120738Z 32019G26KT 10SM SCT024 OVC031 04/M02 A3007 RMK AO2 PK WND 31026/0735 T00441017
KSTL 120651Z 32018G25KT 10SM OVC023 05/00 A3006 RMK AO2 PK WND 32031/0605 SLP180 T00500000
KSTL 120551Z 32022G30KT 10SM OVC025 05/01 A3004 RMK AO2 PK WND 32030/0549 SLP175 T00500006 10094 20050 401441017 51025
KSTL 120451Z 33019G30KT 10SM OVC024 06/01 A3002 RMK AO2 PK WND 33031/0441 SLP169 T00560011
KSTL 120413Z 33017G30KT 10SM OVC028 07/01 A3000 RMK AO2 PK WND 32030/0411 T00670011
KSTL 120351Z 31022G30KT 10SM OVC031 07/01 A2999 RMK AO2 PK WND 31030/0351 SLP157 T00720011
KSTL 120251Z 31018G27KT 10SM OVC035 08/01 A2997 RMK AO2 PK WND 32027/0251 SLP151 T00780011 53026
KSTL 120151Z 30013G23KT 10SM BKN041 OVC055 08/01 A2994 RMK AO2 PK WND 31026/0059 SLP143 T00830006
KSTL 120051Z 29014G25KT 10SM SCT044 OVC055 09/00 A2991 RMK AO2 PK WND 28032/0032 SLP135 T00890000
KSTL 112351Z 30016G36KT 10SM BKN055 OVC100 09/M01 A2989 RMK AO2 PK WND 31036/2342 SLP127 T00941006 10144 20094 51034
KSTL 112251Z 30019G32KT 10SM BKN060 11/M02 A2986 RMK AO2 PK WND 28035/2223 SLP116 T01061017
KSTL 112151Z 30020G30KT 10SM BKN065 BKN250 11/M02 A2983 RMK AO2 PK WND 29034/2135 SLP107 T01111022
KSTL 112051Z 29023G33KT 10SM FEW055 FEW250 12/M03 A2979 RMK AO2 PK WND 27038/2017 SLP092 T01221033 53002
KSTL 111951Z 27019G26KT 10SM SCT200 13/M06 A2977 RMK AO2 PK WND 28032/1856 SLP085 T01331056
KSTL 111851Z 27020G26KT 10SM SCT150 BKN200 13/M06 A2977 RMK AO2 PK WND 27028/1834 SLP086 T01331061
KSTL 111751Z 26017G24KT 10SM FEW150 BKN250 14/M05 A2978 RMK AO2 SLP089 T01391050 10144 20006 56040
KSTL 111651Z 24015KT 10SM FEW150 BKN250 12/M04 A2981 RMK AO2 SLP099 T01171044
KSTL 111551Z 21013KT 10SM SCT150 BKN200 09/M04 A2985 RMK AO2 SLP113 T00891039
KSTL 111451Z 19010KT 10SM BKN150 BKN200 06/M03 A2990 RMK AO2 PRESFR SLP131 T00611028 58040
KSTL 111351Z 18006KT 10SM BKN160 BKN200 03/M02 A2996 RMK AO2 SLP150 T00331022
KSTL 111251Z 18005KT 10SM BKN170 02/M03 A3000 RMK AO2 SLP164 T00221033
KSTL 111151Z 15004KT 10SM BKN150 01/M03 A3003 RMK AO2 SLP174 T00061028 10022 21017 58020
KSTL 111051Z 21003KT 10SM BKN150 02/M03 A3006 RMK AO2 SLP184 T00171033
KSTL 110951Z 00000KT 10SM SCT150 M01/M04 A3007 RMK AO2 SLP187 T10111039
KSTL 110851Z 00000KT 10SM CLR M02/M04 A3008 RMK AO2 SLP193 T10171044 56016
KSTL 110751Z 00000KT 10SM CLR M01/M04 A3010 RMK AO2 SLP198 T10061039
KSTL 110651Z 00000KT 10SM CLR M01/M04 A3012 RMK AO2 SLP204 T10061044
KSTL 110551Z 00000KT 10SM CLR 01/M04 A3013 RMK AO2 SLP210 T00061039 10067 20000 401111056 58001
KSTL 110451Z 00000KT 10SM CLR 02/M03 A3014 RMK AO2 SLP212 T00171033
KSTL 110351Z 26003KT 10SM CLR 02/M04 A3014 RMK AO2 SLP213 T00171039
KSTL 110251Z 29004KT 10SM CLR 05/M03 A3014 RMK AO2 SLP213 T00501033 51016
KSTL 110151Z 29007KT 10SM CLR 04/M03 A3013 RMK AO2 SLP211 T00391033
KSTL 110051Z 30006KT 10SM FEW250 06/M03 A3012 RMK AO2 SLP211 T00561033
KSTL 102351Z 30007KT 10SM BKN250 07/M03 A3009 RMK AO2 SLP197 T00671033 10111 20067 51026
KSTL 102251Z 31009KT 10SM BKN250 08/M03 A3007 RMK AO2 SLP191 T00831033